sensor_id;sensor_type;location;lat;lon;timestamp;P1;durP1;ratioP1;P2;durP2;ratioP2
78346;SDS011;67803;41.330;69.282;2023-07-29T00:02:29;15.43;;;5.72;;
78346;SDS011;67803;41.330;69.282;2023-07-29T00:05:01;14.55;;;6.25;;
78346;SDS011;67803;41.330;69.282;2023-07-29T00:07:31;12.48;;;6.18;;
78346;SDS011;67803;41.330;69.282;2023-07-29T00:10:02;15.73;;;6.22;;
78346;SDS011;67803;41.330;69.282;2023-07-29T00:12:33;13.60;;;5.78;;
78346;SDS011;67803;41.330;69.282;2023-07-29T00:15:03;11.70;;;5.43;;
78346;SDS011;67803;41.330;69.282;2023-07-29T00:17:34;12.60;;;5.65;;
78346;SDS011;67803;41.330;69.282;2023-07-29T00:20:05;17.80;;;6.40;;
78346;SDS011;67803;41.330;69.282;2023-07-29T00:22:36;11.52;;;5.05;;
78346;SDS011;67803;41.330;69.282;2023-07-29T00:25:06;16.55;;;6.47;;
78346;SDS011;67803;41.330;69.282;2023-07-29T00:27:37;14.13;;;5.78;;
78346;SDS011;67803;41.330;69.282;2023-07-29T00:30:08;16.02;;;5.65;;
78346;SDS011;67803;41.330;69.282;2023-07-29T00:32:38;18.38;;;6.53;;
78346;SDS011;67803;41.330;69.282;2023-07-29T00:35:09;13.52;;;6.13;;
78346;SDS011;67803;41.330;69.282;2023-07-29T00:37:39;16.75;;;5.90;;
78346;SDS011;67803;41.330;69.282;2023-07-29T00:40:13;12.95;;;6.05;;
78346;SDS011;67803;41.330;69.282;2023-07-29T00:42:45;13.85;;;6.80;;
78346;SDS011;67803;41.330;69.282;2023-07-29T00:45:15;14.45;;;5.50;;
78346;SDS011;67803;41.330;69.282;2023-07-29T00:47:46;15.80;;;5.93;;
78346;SDS011;67803;41.330;69.282;2023-07-29T00:50:16;11.32;;;5.90;;
78346;SDS011;67803;41.330;69.282;2023-07-29T00:52:48;12.98;;;6.00;;
78346;SDS011;67803;41.330;69.282;2023-07-29T00:55:18;17.85;;;6.85;;
78346;SDS011;67803;41.330;69.282;2023-07-29T00:57:50;16.45;;;6.10;;
78346;SDS011;67803;41.330;69.282;2023-07-29T01:00:21;18.30;;;6.65;;
78346;SDS011;67803;41.330;69.282;2023-07-29T01:02:52;18.10;;;6.78;;
78346;SDS011;67803;41.330;69.282;2023-07-29T01:05:25;20.83;;;6.93;;
78346;SDS011;67803;41.330;69.282;2023-07-29T01:08:04;18.42;;;6.40;;
78346;SDS011;67803;41.330;69.282;2023-07-29T01:10:46;20.30;;;6.68;;
78346;SDS011;67803;41.330;69.282;2023-07-29T01:16:13;17.23;;;6.05;;
78346;SDS011;67803;41.330;69.282;2023-07-29T01:18:46;21.70;;;7.35;;
78346;SDS011;67803;41.330;69.282;2023-07-29T01:21:17;21.63;;;6.70;;
78346;SDS011;67803;41.330;69.282;2023-07-29T01:23:52;23.98;;;6.20;;
78346;SDS011;67803;41.330;69.282;2023-07-29T01:28:52;15.50;;;6.53;;
78346;SDS011;67803;41.330;69.282;2023-07-29T01:31:34;19.80;;;7.63;;
78346;SDS011;67803;41.330;69.282;2023-07-29T01:34:06;20.45;;;7.07;;
78346;SDS011;67803;41.330;69.282;2023-07-29T01:36:39;18.85;;;7.97;;
78346;SDS011;67803;41.330;69.282;2023-07-29T01:39:12;26.30;;;7.22;;
78346;SDS011;67803;41.330;69.282;2023-07-29T01:41:43;20.85;;;7.63;;
78346;SDS011;67803;41.330;69.282;2023-07-29T01:44:14;22.75;;;8.85;;
78346;SDS011;67803;41.330;69.282;2023-07-29T01:46:44;19.35;;;7.22;;
78346;SDS011;67803;41.330;69.282;2023-07-29T01:49:15;25.63;;;8.77;;
78346;SDS011;67803;41.330;69.282;2023-07-29T01:51:45;24.80;;;7.82;;
78346;SDS011;67803;41.330;69.282;2023-07-29T01:54:16;28.60;;;8.63;;
78346;SDS011;67803;41.330;69.282;2023-07-29T01:56:46;27.65;;;7.80;;
78346;SDS011;67803;41.330;69.282;2023-07-29T01:59:18;22.67;;;7.85;;
78346;SDS011;67803;41.330;69.282;2023-07-29T02:01:48;29.88;;;7.88;;
78346;SDS011;67803;41.330;69.282;2023-07-29T02:04:19;28.45;;;8.35;;
78346;SDS011;67803;41.330;69.282;2023-07-29T02:06:50;24.58;;;8.02;;
78346;SDS011;67803;41.330;69.282;2023-07-29T02:09:20;27.83;;;8.30;;
78346;SDS011;67803;41.330;69.282;2023-07-29T02:11:51;25.83;;;7.72;;
78346;SDS011;67803;41.330;69.282;2023-07-29T02:14:22;30.45;;;8.55;;
78346;SDS011;67803;41.330;69.282;2023-07-29T02:16:52;21.80;;;7.30;;
78346;SDS011;67803;41.330;69.282;2023-07-29T02:19:22;22.08;;;7.90;;
78346;SDS011;67803;41.330;69.282;2023-07-29T02:21:53;23.20;;;7.60;;
78346;SDS011;67803;41.330;69.282;2023-07-29T02:24:23;24.27;;;8.38;;
78346;SDS011;67803;41.330;69.282;2023-07-29T02:26:54;27.92;;;8.38;;
78346;SDS011;67803;41.330;69.282;2023-07-29T02:29:24;22.52;;;7.90;;
78346;SDS011;67803;41.330;69.282;2023-07-29T02:31:55;23.20;;;7.55;;
78346;SDS011;67803;41.330;69.282;2023-07-29T02:34:25;24.42;;;7.32;;
78346;SDS011;67803;41.330;69.282;2023-07-29T02:36:56;26.55;;;7.05;;
78346;SDS011;67803;41.330;69.282;2023-07-29T02:39:26;18.67;;;6.53;;
78346;SDS011;67803;41.330;69.282;2023-07-29T02:41:57;17.40;;;5.70;;
78346;SDS011;67803;41.330;69.282;2023-07-29T02:44:28;26.67;;;7.03;;
78346;SDS011;67803;41.330;69.282;2023-07-29T02:46:59;21.30;;;6.75;;
78346;SDS011;67803;41.330;69.282;2023-07-29T02:49:29;19.77;;;6.30;;
78346;SDS011;67803;41.330;69.282;2023-07-29T02:51:59;21.02;;;6.80;;
78346;SDS011;67803;41.330;69.282;2023-07-29T02:54:30;18.33;;;6.70;;
78346;SDS011;67803;41.330;69.282;2023-07-29T02:57:00;16.90;;;6.18;;
78346;SDS011;67803;41.330;69.282;2023-07-29T02:59:31;23.27;;;6.03;;
78346;SDS011;67803;41.330;69.282;2023-07-29T03:02:01;15.65;;;6.10;;
78346;SDS011;67803;41.330;69.282;2023-07-29T03:04:32;15.45;;;6.40;;
78346;SDS011;67803;41.330;69.282;2023-07-29T03:07:03;16.85;;;6.00;;
78346;SDS011;67803;41.330;69.282;2023-07-29T03:09:33;16.65;;;4.82;;
78346;SDS011;67803;41.330;69.282;2023-07-29T03:12:04;19.55;;;4.80;;
78346;SDS011;67803;41.330;69.282;2023-07-29T03:14:34;11.70;;;4.18;;
78346;SDS011;67803;41.330;69.282;2023-07-29T03:17:05;13.38;;;5.10;;
78346;SDS011;67803;41.330;69.282;2023-07-29T03:19:35;15.70;;;4.88;;
78346;SDS011;67803;41.330;69.282;2023-07-29T03:22:06;14.02;;;4.38;;
78346;SDS011;67803;41.330;69.282;2023-07-29T03:24:37;17.42;;;4.50;;
78346;SDS011;67803;41.330;69.282;2023-07-29T03:27:07;14.55;;;4.57;;
78346;SDS011;67803;41.330;69.282;2023-07-29T03:29:39;21.45;;;5.25;;
78346;SDS011;67803;41.330;69.282;2023-07-29T03:32:10;18.75;;;4.93;;
78346;SDS011;67803;41.330;69.282;2023-07-29T03:34:41;16.67;;;5.35;;
78346;SDS011;67803;41.330;69.282;2023-07-29T03:37:11;12.10;;;4.65;;
78346;SDS011;67803;41.330;69.282;2023-07-29T03:39:42;16.75;;;4.70;;
78346;SDS011;67803;41.330;69.282;2023-07-29T03:42:12;16.48;;;5.47;;
78346;SDS011;67803;41.330;69.282;2023-07-29T03:44:43;14.90;;;5.15;;
78346;SDS011;67803;41.330;69.282;2023-07-29T03:47:13;16.60;;;4.80;;
78346;SDS011;67803;41.330;69.282;2023-07-29T03:49:44;13.55;;;5.18;;
78346;SDS011;67803;41.330;69.282;2023-07-29T03:52:14;18.88;;;4.90;;
78346;SDS011;67803;41.330;69.282;2023-07-29T03:54:45;14.65;;;4.70;;
78346;SDS011;67803;41.330;69.282;2023-07-29T03:57:15;14.85;;;4.55;;
78346;SDS011;67803;41.330;69.282;2023-07-29T03:59:46;15.45;;;5.00;;
78346;SDS011;67803;41.330;69.282;2023-07-29T04:02:16;18.52;;;5.25;;
78346;SDS011;67803;41.330;69.282;2023-07-29T04:04:47;15.77;;;5.57;;
78346;SDS011;67803;41.330;69.282;2023-07-29T04:07:18;21.13;;;5.10;;
78346;SDS011;67803;41.330;69.282;2023-07-29T04:09:48;19.67;;;5.15;;
78346;SDS011;67803;41.330;69.282;2023-07-29T04:12:19;16.40;;;4.90;;
78346;SDS011;67803;41.330;69.282;2023-07-29T04:14:51;18.48;;;5.47;;
78346;SDS011;67803;41.330;69.282;2023-07-29T04:17:22;18.23;;;6.15;;
78346;SDS011;67803;41.330;69.282;2023-07-29T04:19:52;14.02;;;5.10;;
78346;SDS011;67803;41.330;69.282;2023-07-29T04:22:23;17.33;;;5.45;;
78346;SDS011;67803;41.330;69.282;2023-07-29T04:24:53;13.55;;;5.20;;
78346;SDS011;67803;41.330;69.282;2023-07-29T04:27:24;13.00;;;4.78;;
78346;SDS011;67803;41.330;69.282;2023-07-29T04:29:55;11.45;;;4.72;;
78346;SDS011;67803;41.330;69.282;2023-07-29T04:32:25;15.90;;;4.65;;
78346;SDS011;67803;41.330;69.282;2023-07-29T04:34:56;17.85;;;4.95;;
78346;SDS011;67803;41.330;69.282;2023-07-29T04:37:26;12.82;;;4.95;;
78346;SDS011;67803;41.330;69.282;2023-07-29T04:39:56;14.65;;;5.03;;
78346;SDS011;67803;41.330;69.282;2023-07-29T04:42:27;23.65;;;5.97;;
78346;SDS011;67803;41.330;69.282;2023-07-29T04:44:57;16.60;;;4.97;;
78346;SDS011;67803;41.330;69.282;2023-07-29T04:47:28;16.83;;;5.45;;
78346;SDS011;67803;41.330;69.282;2023-07-29T04:49:58;16.67;;;5.20;;
78346;SDS011;67803;41.330;69.282;2023-07-29T04:52:29;17.90;;;6.03;;
78346;SDS011;67803;41.330;69.282;2023-07-29T04:54:59;22.42;;;5.50;;
78346;SDS011;67803;41.330;69.282;2023-07-29T04:57:30;22.58;;;5.85;;
78346;SDS011;67803;41.330;69.282;2023-07-29T05:00:00;13.85;;;4.65;;
78346;SDS011;67803;41.330;69.282;2023-07-29T05:02:31;16.30;;;6.53;;
78346;SDS011;67803;41.330;69.282;2023-07-29T05:05:01;19.83;;;5.85;;
78346;SDS011;67803;41.330;69.282;2023-07-29T05:07:32;19.35;;;4.65;;
78346;SDS011;67803;41.330;69.282;2023-07-29T05:10:02;20.90;;;5.28;;
78346;SDS011;67803;41.330;69.282;2023-07-29T05:12:33;23.13;;;5.32;;
78346;SDS011;67803;41.330;69.282;2023-07-29T05:15:04;16.40;;;4.70;;
78346;SDS011;67803;41.330;69.282;2023-07-29T05:17:34;18.75;;;4.93;;
78346;SDS011;67803;41.330;69.282;2023-07-29T05:20:05;17.42;;;4.97;;
78346;SDS011;67803;41.330;69.282;2023-07-29T05:22:36;17.13;;;4.95;;
78346;SDS011;67803;41.330;69.282;2023-07-29T05:25:06;16.77;;;4.85;;
78346;SDS011;67803;41.330;69.282;2023-07-29T05:27:37;16.83;;;5.22;;
78346;SDS011;67803;41.330;69.282;2023-07-29T05:30:07;16.23;;;4.93;;
78346;SDS011;67803;41.330;69.282;2023-07-29T05:32:38;18.73;;;5.25;;
78346;SDS011;67803;41.330;69.282;2023-07-29T05:35:08;19.60;;;4.85;;
78346;SDS011;67803;41.330;69.282;2023-07-29T05:37:40;18.58;;;4.20;;
78346;SDS011;67803;41.330;69.282;2023-07-29T05:40:10;19.58;;;5.05;;
78346;SDS011;67803;41.330;69.282;2023-07-29T05:42:41;19.13;;;5.25;;
78346;SDS011;67803;41.330;69.282;2023-07-29T05:45:11;18.42;;;4.88;;
78346;SDS011;67803;41.330;69.282;2023-07-29T05:47:43;17.35;;;4.82;;
78346;SDS011;67803;41.330;69.282;2023-07-29T05:50:13;25.45;;;5.55;;
78346;SDS011;67803;41.330;69.282;2023-07-29T05:52:44;22.15;;;5.25;;
78346;SDS011;67803;41.330;69.282;2023-07-29T05:55:14;25.05;;;5.65;;
78346;SDS011;67803;41.330;69.282;2023-07-29T05:57:45;19.95;;;4.85;;
78346;SDS011;67803;41.330;69.282;2023-07-29T06:00:15;15.23;;;4.70;;
78346;SDS011;67803;41.330;69.282;2023-07-29T06:02:45;11.85;;;4.32;;
78346;SDS011;67803;41.330;69.282;2023-07-29T06:05:16;18.50;;;4.82;;
78346;SDS011;67803;41.330;69.282;2023-07-29T06:07:47;18.45;;;4.90;;
78346;SDS011;67803;41.330;69.282;2023-07-29T06:10:18;18.15;;;4.45;;
78346;SDS011;67803;41.330;69.282;2023-07-29T06:12:48;15.93;;;5.10;;
78346;SDS011;67803;41.330;69.282;2023-07-29T06:15:19;11.38;;;4.50;;
78346;SDS011;67803;41.330;69.282;2023-07-29T06:17:53;15.07;;;5.13;;
78346;SDS011;67803;41.330;69.282;2023-07-29T06:20:23;13.43;;;4.47;;
78346;SDS011;67803;41.330;69.282;2023-07-29T06:22:54;17.88;;;5.22;;
78346;SDS011;67803;41.330;69.282;2023-07-29T06:25:24;18.10;;;5.30;;
78346;SDS011;67803;41.330;69.282;2023-07-29T06:27:55;15.07;;;5.20;;
78346;SDS011;67803;41.330;69.282;2023-07-29T06:30:25;15.93;;;4.80;;
78346;SDS011;67803;41.330;69.282;2023-07-29T06:32:56;18.20;;;4.40;;
78346;SDS011;67803;41.330;69.282;2023-07-29T06:35:26;19.63;;;4.88;;
78346;SDS011;67803;41.330;69.282;2023-07-29T06:37:57;14.93;;;4.78;;
78346;SDS011;67803;41.330;69.282;2023-07-29T06:40:27;19.15;;;5.10;;
78346;SDS011;67803;41.330;69.282;2023-07-29T06:42:57;13.80;;;4.85;;
78346;SDS011;67803;41.330;69.282;2023-07-29T06:45:28;13.93;;;4.90;;
78346;SDS011;67803;41.330;69.282;2023-07-29T06:47:58;14.75;;;5.15;;
78346;SDS011;67803;41.330;69.282;2023-07-29T06:50:29;19.45;;;5.65;;
78346;SDS011;67803;41.330;69.282;2023-07-29T06:52:59;17.08;;;5.47;;
78346;SDS011;67803;41.330;69.282;2023-07-29T06:55:30;14.18;;;5.22;;
78346;SDS011;67803;41.330;69.282;2023-07-29T06:58:00;17.48;;;7.07;;
78346;SDS011;67803;41.330;69.282;2023-07-29T07:00:31;18.02;;;6.05;;
78346;SDS011;67803;41.330;69.282;2023-07-29T07:03:01;22.27;;;5.82;;
78346;SDS011;67803;41.330;69.282;2023-07-29T07:05:32;15.52;;;6.95;;
78346;SDS011;67803;41.330;69.282;2023-07-29T07:08:02;18.83;;;6.53;;
78346;SDS011;67803;41.330;69.282;2023-07-29T07:10:33;14.85;;;5.90;;
78346;SDS011;67803;41.330;69.282;2023-07-29T07:13:04;12.82;;;4.88;;
78346;SDS011;67803;41.330;69.282;2023-07-29T07:15:34;15.68;;;5.10;;
78346;SDS011;67803;41.330;69.282;2023-07-29T07:18:05;11.73;;;5.93;;
78346;SDS011;67803;41.330;69.282;2023-07-29T07:20:35;16.23;;;6.35;;
78346;SDS011;67803;41.330;69.282;2023-07-29T07:23:06;16.27;;;5.07;;
78346;SDS011;67803;41.330;69.282;2023-07-29T07:25:41;13.65;;;5.50;;
78346;SDS011;67803;41.330;69.282;2023-07-29T07:28:12;18.55;;;6.35;;
78346;SDS011;67803;41.330;69.282;2023-07-29T07:30:43;13.98;;;5.93;;
78346;SDS011;67803;41.330;69.282;2023-07-29T07:33:13;9.57;;;4.45;;
78346;SDS011;67803;41.330;69.282;2023-07-29T07:35:43;13.32;;;4.45;;
78346;SDS011;67803;41.330;69.282;2023-07-29T07:38:15;8.15;;;4.28;;
78346;SDS011;67803;41.330;69.282;2023-07-29T07:40:54;12.25;;;4.43;;
78346;SDS011;67803;41.330;69.282;2023-07-29T07:43:25;13.45;;;5.07;;
78346;SDS011;67803;41.330;69.282;2023-07-29T07:46:02;14.27;;;5.72;;
78346;SDS011;67803;41.330;69.282;2023-07-29T07:48:33;12.63;;;4.25;;
78346;SDS011;67803;41.330;69.282;2023-07-29T07:51:13;14.70;;;4.03;;
78346;SDS011;67803;41.330;69.282;2023-07-29T07:53:44;16.50;;;4.22;;
78346;SDS011;67803;41.330;69.282;2023-07-29T07:56:14;14.55;;;3.80;;
78346;SDS011;67803;41.330;69.282;2023-07-29T07:58:45;11.82;;;3.60;;
78346;SDS011;67803;41.330;69.282;2023-07-29T08:01:15;10.75;;;3.83;;
78346;SDS011;67803;41.330;69.282;2023-07-29T08:03:46;12.75;;;3.90;;
78346;SDS011;67803;41.330;69.282;2023-07-29T08:06:16;10.52;;;3.88;;
78346;SDS011;67803;41.330;69.282;2023-07-29T08:08:47;22.13;;;4.38;;
78346;SDS011;67803;41.330;69.282;2023-07-29T08:11:17;7.22;;;3.58;;
78346;SDS011;67803;41.330;69.282;2023-07-29T08:13:48;12.20;;;3.78;;
78346;SDS011;67803;41.330;69.282;2023-07-29T08:16:18;13.18;;;3.70;;
78346;SDS011;67803;41.330;69.282;2023-07-29T08:18:49;13.73;;;3.95;;
78346;SDS011;67803;41.330;69.282;2023-07-29T08:21:19;9.23;;;4.07;;
78346;SDS011;67803;41.330;69.282;2023-07-29T08:23:49;9.50;;;3.13;;
78346;SDS011;67803;41.330;69.282;2023-07-29T08:26:20;10.00;;;3.60;;
78346;SDS011;67803;41.330;69.282;2023-07-29T08:28:51;10.73;;;4.00;;
78346;SDS011;67803;41.330;69.282;2023-07-29T08:31:21;11.75;;;3.50;;
78346;SDS011;67803;41.330;69.282;2023-07-29T08:33:52;8.73;;;3.50;;
78346;SDS011;67803;41.330;69.282;2023-07-29T08:36:22;10.10;;;4.18;;
78346;SDS011;67803;41.330;69.282;2023-07-29T08:38:53;9.63;;;3.63;;
78346;SDS011;67803;41.330;69.282;2023-07-29T08:41:29;9.10;;;3.45;;
78346;SDS011;67803;41.330;69.282;2023-07-29T08:44:06;11.93;;;3.50;;
78346;SDS011;67803;41.330;69.282;2023-07-29T08:46:39;9.10;;;3.33;;
78346;SDS011;67803;41.330;69.282;2023-07-29T08:49:11;6.55;;;2.85;;
78346;SDS011;67803;41.330;69.282;2023-07-29T08:51:42;9.65;;;3.38;;
78346;SDS011;67803;41.330;69.282;2023-07-29T08:54:13;11.77;;;3.58;;
78346;SDS011;67803;41.330;69.282;2023-07-29T08:56:43;9.60;;;3.53;;
78346;SDS011;67803;41.330;69.282;2023-07-29T08:59:14;10.02;;;3.40;;
78346;SDS011;67803;41.330;69.282;2023-07-29T09:01:47;5.30;;;3.30;;
78346;SDS011;67803;41.330;69.282;2023-07-29T09:04:17;10.93;;;3.80;;
78346;SDS011;67803;41.330;69.282;2023-07-29T09:06:48;8.13;;;3.58;;
78346;SDS011;67803;41.330;69.282;2023-07-29T09:09:20;12.00;;;3.40;;
78346;SDS011;67803;41.330;69.282;2023-07-29T09:11:51;13.18;;;3.63;;
78346;SDS011;67803;41.330;69.282;2023-07-29T09:14:22;10.73;;;3.40;;
78346;SDS011;67803;41.330;69.282;2023-07-29T09:16:53;10.02;;;4.07;;
78346;SDS011;67803;41.330;69.282;2023-07-29T09:19:27;18.38;;;4.68;;
78346;SDS011;67803;41.330;69.282;2023-07-29T09:21:57;8.52;;;3.60;;
78346;SDS011;67803;41.330;69.282;2023-07-29T09:24:28;13.00;;;3.50;;
78346;SDS011;67803;41.330;69.282;2023-07-29T09:27:02;11.85;;;4.68;;
78346;SDS011;67803;41.330;69.282;2023-07-29T09:29:35;9.05;;;3.58;;
78346;SDS011;67803;41.330;69.282;2023-07-29T09:32:19;12.05;;;3.97;;
78346;SDS011;67803;41.330;69.282;2023-07-29T09:34:50;7.28;;;3.13;;
78346;SDS011;67803;41.330;69.282;2023-07-29T09:37:21;8.38;;;3.38;;
78346;SDS011;67803;41.330;69.282;2023-07-29T09:39:52;11.57;;;3.05;;
78346;SDS011;67803;41.330;69.282;2023-07-29T09:42:22;10.70;;;3.28;;
78346;SDS011;67803;41.330;69.282;2023-07-29T09:44:53;10.88;;;2.53;;
78346;SDS011;67803;41.330;69.282;2023-07-29T09:47:24;5.75;;;2.70;;
78346;SDS011;67803;41.330;69.282;2023-07-29T09:49:55;10.63;;;3.10;;
78346;SDS011;67803;41.330;69.282;2023-07-29T09:52:26;9.75;;;3.10;;
78346;SDS011;67803;41.330;69.282;2023-07-29T09:54:56;11.32;;;3.08;;
78346;SDS011;67803;41.330;69.282;2023-07-29T09:57:27;8.10;;;2.42;;
78346;SDS011;67803;41.330;69.282;2023-07-29T09:59:57;9.25;;;2.40;;
78346;SDS011;67803;41.330;69.282;2023-07-29T10:02:28;8.27;;;2.50;;
78346;SDS011;67803;41.330;69.282;2023-07-29T10:05:00;7.30;;;2.55;;
78346;SDS011;67803;41.330;69.282;2023-07-29T10:07:31;10.07;;;2.70;;
78346;SDS011;67803;41.330;69.282;2023-07-29T10:10:02;12.48;;;2.80;;
78346;SDS011;67803;41.330;69.282;2023-07-29T10:12:34;10.80;;;2.63;;
78346;SDS011;67803;41.330;69.282;2023-07-29T10:15:06;9.85;;;2.83;;
78346;SDS011;67803;41.330;69.282;2023-07-29T10:17:38;8.20;;;2.33;;
78346;SDS011;67803;41.330;69.282;2023-07-29T10:20:09;9.63;;;2.65;;
78346;SDS011;67803;41.330;69.282;2023-07-29T10:22:41;9.60;;;2.70;;
78346;SDS011;67803;41.330;69.282;2023-07-29T10:25:36;9.18;;;2.70;;
78346;SDS011;67803;41.330;69.282;2023-07-29T10:28:06;5.00;;;2.17;;
78346;SDS011;67803;41.330;69.282;2023-07-29T10:30:37;6.63;;;2.03;;
78346;SDS011;67803;41.330;69.282;2023-07-29T10:33:08;11.38;;;2.47;;
78346;SDS011;67803;41.330;69.282;2023-07-29T10:35:40;13.07;;;2.60;;
78346;SDS011;67803;41.330;69.282;2023-07-29T10:38:11;13.65;;;2.67;;
78346;SDS011;67803;41.330;69.282;2023-07-29T10:40:55;8.57;;;2.85;;
78346;SDS011;67803;41.330;69.282;2023-07-29T10:43:28;10.52;;;2.67;;
78346;SDS011;67803;41.330;69.282;2023-07-29T10:46:20;8.90;;;2.40;;
78346;SDS011;67803;41.330;69.282;2023-07-29T10:48:55;11.98;;;2.80;;
78346;SDS011;67803;41.330;69.282;2023-07-29T10:51:29;17.20;;;3.38;;
78346;SDS011;67803;41.330;69.282;2023-07-29T10:54:04;8.60;;;2.15;;
78346;SDS011;67803;41.330;69.282;2023-07-29T10:56:40;5.90;;;2.10;;
78346;SDS011;67803;41.330;69.282;2023-07-29T11:01:43;6.40;;;2.22;;
78346;SDS011;67803;41.330;69.282;2023-07-29T11:09:40;7.30;;;2.30;;
78346;SDS011;67803;41.330;69.282;2023-07-29T11:12:33;6.82;;;2.30;;
78346;SDS011;67803;41.330;69.282;2023-07-29T11:17:45;9.63;;;2.42;;
78346;SDS011;67803;41.330;69.282;2023-07-29T11:20:17;7.80;;;2.92;;
78346;SDS011;67803;41.330;69.282;2023-07-29T11:22:48;6.70;;;2.40;;
78346;SDS011;67803;41.330;69.282;2023-07-29T11:25:19;6.05;;;2.78;;
78346;SDS011;67803;41.330;69.282;2023-07-29T11:27:52;8.32;;;2.92;;
78346;SDS011;67803;41.330;69.282;2023-07-29T11:32:55;6.78;;;2.40;;
78346;SDS011;67803;41.330;69.282;2023-07-29T11:35:26;10.25;;;2.40;;
78346;SDS011;67803;41.330;69.282;2023-07-29T11:37:57;7.85;;;2.90;;
78346;SDS011;67803;41.330;69.282;2023-07-29T11:40:27;8.07;;;2.17;;
78346;SDS011;67803;41.330;69.282;2023-07-29T11:42:58;7.28;;;2.42;;
78346;SDS011;67803;41.330;69.282;2023-07-29T11:45:28;8.18;;;2.63;;
78346;SDS011;67803;41.330;69.282;2023-07-29T11:48:00;8.95;;;2.60;;
78346;SDS011;67803;41.330;69.282;2023-07-29T11:50:32;10.57;;;2.67;;
78346;SDS011;67803;41.330;69.282;2023-07-29T11:53:03;5.00;;;2.33;;
78346;SDS011;67803;41.330;69.282;2023-07-29T11:55:33;5.82;;;2.13;;
78346;SDS011;67803;41.330;69.282;2023-07-29T11:58:05;5.50;;;2.22;;
78346;SDS011;67803;41.330;69.282;2023-07-29T12:00:37;8.43;;;2.40;;
78346;SDS011;67803;41.330;69.282;2023-07-29T12:03:08;8.02;;;2.22;;
78346;SDS011;67803;41.330;69.282;2023-07-29T12:05:40;11.88;;;2.38;;
78346;SDS011;67803;41.330;69.282;2023-07-29T12:08:12;7.97;;;2.80;;
78346;SDS011;67803;41.330;69.282;2023-07-29T12:10:43;4.60;;;2.10;;
78346;SDS011;67803;41.330;69.282;2023-07-29T12:13:14;8.05;;;2.30;;
78346;SDS011;67803;41.330;69.282;2023-07-29T12:15:45;7.95;;;2.70;;
78346;SDS011;67803;41.330;69.282;2023-07-29T12:18:16;10.35;;;2.70;;
78346;SDS011;67803;41.330;69.282;2023-07-29T12:20:46;9.02;;;2.45;;
78346;SDS011;67803;41.330;69.282;2023-07-29T12:23:17;11.05;;;2.83;;
78346;SDS011;67803;41.330;69.282;2023-07-29T12:25:58;9.88;;;2.80;;
78346;SDS011;67803;41.330;69.282;2023-07-29T12:28:29;9.02;;;2.70;;
78346;SDS011;67803;41.330;69.282;2023-07-29T12:31:01;8.05;;;2.47;;
78346;SDS011;67803;41.330;69.282;2023-07-29T12:33:32;5.07;;;2.35;;
78346;SDS011;67803;41.330;69.282;2023-07-29T12:36:03;12.07;;;2.55;;
78346;SDS011;67803;41.330;69.282;2023-07-29T12:38:34;7.03;;;2.17;;
78346;SDS011;67803;41.330;69.282;2023-07-29T12:41:05;6.18;;;2.40;;
78346;SDS011;67803;41.330;69.282;2023-07-29T12:43:37;6.38;;;2.35;;
78346;SDS011;67803;41.330;69.282;2023-07-29T12:46:08;9.32;;;2.35;;
78346;SDS011;67803;41.330;69.282;2023-07-29T12:48:39;7.75;;;2.60;;
78346;SDS011;67803;41.330;69.282;2023-07-29T12:51:09;10.63;;;2.47;;
78346;SDS011;67803;41.330;69.282;2023-07-29T12:53:40;10.65;;;2.50;;
78346;SDS011;67803;41.330;69.282;2023-07-29T12:56:10;6.22;;;2.53;;
78346;SDS011;67803;41.330;69.282;2023-07-29T12:58:41;11.45;;;2.70;;
78346;SDS011;67803;41.330;69.282;2023-07-29T13:01:11;8.07;;;2.80;;
78346;SDS011;67803;41.330;69.282;2023-07-29T13:03:48;12.23;;;2.70;;
78346;SDS011;67803;41.330;69.282;2023-07-29T13:06:19;8.93;;;2.47;;
78346;SDS011;67803;41.330;69.282;2023-07-29T13:08:50;8.75;;;2.70;;
78346;SDS011;67803;41.330;69.282;2023-07-29T13:11:21;9.48;;;2.53;;
78346;SDS011;67803;41.330;69.282;2023-07-29T13:13:51;9.57;;;2.53;;
78346;SDS011;67803;41.330;69.282;2023-07-29T13:16:22;6.93;;;2.38;;
78346;SDS011;67803;41.330;69.282;2023-07-29T13:18:52;7.57;;;2.50;;
78346;SDS011;67803;41.330;69.282;2023-07-29T13:21:23;13.50;;;2.53;;
78346;SDS011;67803;41.330;69.282;2023-07-29T13:23:54;7.88;;;2.55;;
78346;SDS011;67803;41.330;69.282;2023-07-29T13:26:24;17.42;;;3.22;;
78346;SDS011;67803;41.330;69.282;2023-07-29T13:28:55;19.88;;;3.42;;
78346;SDS011;67803;41.330;69.282;2023-07-29T13:31:26;9.85;;;2.75;;
78346;SDS011;67803;41.330;69.282;2023-07-29T13:33:56;12.05;;;3.42;;
78346;SDS011;67803;41.330;69.282;2023-07-29T13:36:26;12.57;;;3.25;;
78346;SDS011;67803;41.330;69.282;2023-07-29T13:38:57;14.95;;;3.30;;
78346;SDS011;67803;41.330;69.282;2023-07-29T13:41:27;10.65;;;2.80;;
78346;SDS011;67803;41.330;69.282;2023-07-29T13:43:58;10.52;;;3.20;;
78346;SDS011;67803;41.330;69.282;2023-07-29T13:46:28;10.55;;;3.58;;
78346;SDS011;67803;41.330;69.282;2023-07-29T13:48:59;10.73;;;3.03;;
78346;SDS011;67803;41.330;69.282;2023-07-29T13:51:30;11.43;;;3.63;;
78346;SDS011;67803;41.330;69.282;2023-07-29T13:54:00;13.88;;;3.30;;
78346;SDS011;67803;41.330;69.282;2023-07-29T13:56:31;7.95;;;3.45;;
78346;SDS011;67803;41.330;69.282;2023-07-29T13:59:01;12.13;;;3.38;;
78346;SDS011;67803;41.330;69.282;2023-07-29T14:01:32;9.85;;;3.28;;
78346;SDS011;67803;41.330;69.282;2023-07-29T14:04:02;12.13;;;4.35;;
78346;SDS011;67803;41.330;69.282;2023-07-29T14:06:32;13.57;;;4.20;;
78346;SDS011;67803;41.330;69.282;2023-07-29T14:09:03;14.60;;;4.18;;
78346;SDS011;67803;41.330;69.282;2023-07-29T14:11:33;10.43;;;3.85;;
78346;SDS011;67803;41.330;69.282;2023-07-29T14:14:04;10.48;;;3.85;;
78346;SDS011;67803;41.330;69.282;2023-07-29T14:16:34;16.10;;;4.30;;
78346;SDS011;67803;41.330;69.282;2023-07-29T14:19:05;9.80;;;3.88;;
78346;SDS011;67803;41.330;69.282;2023-07-29T14:21:35;13.63;;;4.03;;
78346;SDS011;67803;41.330;69.282;2023-07-29T14:24:06;11.73;;;4.45;;
78346;SDS011;67803;41.330;69.282;2023-07-29T14:26:36;13.73;;;3.90;;
78346;SDS011;67803;41.330;69.282;2023-07-29T14:29:07;13.68;;;4.10;;
78346;SDS011;67803;41.330;69.282;2023-07-29T14:31:37;9.82;;;3.83;;
78346;SDS011;67803;41.330;69.282;2023-07-29T14:34:08;14.80;;;4.93;;
78346;SDS011;67803;41.330;69.282;2023-07-29T14:36:38;11.93;;;4.20;;
78346;SDS011;67803;41.330;69.282;2023-07-29T14:39:09;16.20;;;4.47;;
78346;SDS011;67803;41.330;69.282;2023-07-29T14:41:39;14.57;;;4.63;;
78346;SDS011;67803;41.330;69.282;2023-07-29T14:44:10;15.52;;;4.60;;
78346;SDS011;67803;41.330;69.282;2023-07-29T14:46:40;16.13;;;4.68;;
78346;SDS011;67803;41.330;69.282;2023-07-29T14:49:11;11.95;;;4.45;;
78346;SDS011;67803;41.330;69.282;2023-07-29T14:51:41;11.07;;;4.35;;
78346;SDS011;67803;41.330;69.282;2023-07-29T14:54:12;16.05;;;5.38;;
78346;SDS011;67803;41.330;69.282;2023-07-29T14:56:42;22.77;;;4.93;;
78346;SDS011;67803;41.330;69.282;2023-07-29T14:59:13;13.18;;;5.60;;
78346;SDS011;67803;41.330;69.282;2023-07-29T15:01:43;15.05;;;5.95;;
78346;SDS011;67803;41.330;69.282;2023-07-29T15:04:13;18.05;;;6.43;;
78346;SDS011;67803;41.330;69.282;2023-07-29T15:06:44;16.20;;;5.80;;